Terminal Aerodrome Forecast
Issued by NWS

Home | Current Version | Previous Version | Text Only | Print | Product List | Glossary On
Versions: 1 2 3 4 5 6 7 8 9 10 11 12 13 14
000
FTUS46 KPDT 291700
TAFDLS
TAF
KDLS 291720Z 2918/3018 29005KT P6SM SCT150
     FM292000 32011KT P6SM FEW120 SCT180
     FM300600 30005KT P6SM SCT200=

USA.gov is the U.S. government's official web portal to all federal, state and local government web resources and services.